KBIF/BIF METAR and TAF weather

Enter ICAO airport designator
Station Type Date Time Source
KBIF METAR 2018/04/27 00:58 UTC NOAA

KBIF 270058Z AUTO 00000KT 9SM FEW250 29/M05 A2995 RMK AO2 SLP086 T02851048 $


Station Type Date Time Source
KBIF Decoded METAR 2018/04/27 00:58 UTC NOAA

Biggs Army Air Field / Ft. Bliss, TX, United States (KBIF) 31-51N 106-23W
Apr 26, 2018 - 08:58 PM EDT / 2018.04.27 0058 UTC
Wind: Calm:0
Visibility: 9 mile(s):0
Sky conditions: mostly clear
Temperature: 83.3 F (28.5 C)
Dew Point: 23.4 F (-4.8 C)
Relative Humidity: 10%
Pressure (altimeter): 29.95 in. Hg (1014 hPa)
ob: KBIF 270058Z AUTO 00000KT 9SM FEW250 29/M05 A2995 RMK AO2 SLP086 T02851048
cycle: 1

Station Type Date Time Source
KBIF TAF 2018/04/26 22:09 UTC NOAA

TAF KBIF 2622/2804 35009KT 9999 FEW150 BKN250 QNH2993INS
BECMG 2700/2701 07015G25KT 9999 FEW120 BKN250 510009 QNH2988INS
TEMPO 2706/2711 08025G35KT 530009
BECMG 2711/2712 09012G18KT 9999 SCT100 BKN160 QNH3009INS
BECMG 2715/2716 12009KT 9999 BKN150 QNH3018INS
BECMG 2720/2721 18012KT 9999 SCT180 QNH3013INS TX29/2622Z TN13/2714Z


Example: see airport list